createdAt,value
2022-08-16T00:00:41.151Z,91.50
2022-08-16T00:05:35.296Z,90.14
2022-08-16T00:10:43.655Z,88.63
2022-08-16T00:15:50.963Z,87.79
2022-08-16T00:20:48.618Z,87.84
2022-08-16T00:26:33.720Z,85.89
2022-08-16T00:31:00.986Z,87.48
2022-08-16T00:35:54.444Z,88.33
2022-08-16T00:40:54.826Z,88.41
2022-08-16T00:46:00.626Z,87.50
2022-08-16T00:50:55.547Z,86.87
2022-08-16T00:55:54.535Z,88.19
2022-08-16T01:00:53.986Z,88.43
2022-08-16T01:05:48.913Z,89.35
2022-08-16T01:10:43.712Z,89.34
2022-08-16T01:15:45.228Z,89.06
2022-08-16T01:20:52.509Z,89.16
2022-08-16T01:25:59.949Z,88.47
2022-08-16T01:31:08.330Z,91.63
2022-08-16T01:36:09.360Z,90.81
2022-08-16T01:41:12.039Z,90.21
2022-08-16T01:46:37.933Z,90.44
2022-08-16T01:51:33.898Z,89.95
2022-08-16T01:56:36.707Z,90.05
2022-08-16T02:01:31.939Z,91.64
2022-08-16T02:06:34.422Z,90.33
2022-08-16T02:11:48.595Z,89.90
2022-08-16T02:16:46.071Z,90.93
2022-08-16T02:21:39.655Z,90.72
2022-08-16T02:26:53.603Z,91.66
2022-08-16T02:32:03.266Z,90.85
2022-08-16T02:36:57.944Z,90.20
2022-08-16T02:41:54.235Z,89.41
2022-08-16T02:46:50.678Z,90.75
2022-08-16T02:51:47.235Z,89.48
2022-08-16T02:56:40.724Z,92.69
2022-08-16T03:01:37.333Z,92.45
2022-08-16T03:06:42.139Z,92.63
2022-08-16T03:11:36.336Z,91.52
2022-08-16T03:16:37.718Z,90.36
2022-08-16T03:21:38.299Z,89.16
2022-08-16T03:26:32.045Z,88.19
2022-08-16T03:31:25.422Z,87.37
2022-08-16T03:36:31.112Z,90.19
2022-08-16T03:41:29.438Z,89.95
2022-08-16T03:46:44.857Z,90.32
2022-08-16T03:51:43.933Z,89.60
2022-08-16T03:56:38.615Z,90.36
2022-08-16T04:01:53.674Z,90.59
2022-08-16T04:06:47.222Z,91.31
2022-08-16T04:11:41.921Z,90.70
2022-08-16T04:16:35.722Z,91.02
2022-08-16T04:21:29.819Z,90.86
2022-08-16T04:26:23.088Z,89.79
2022-08-16T04:31:18.490Z,90.65
2022-08-16T04:36:13.075Z,89.70
2022-08-16T04:41:13.613Z,90.67
2022-08-16T04:46:19.747Z,91.00
2022-08-16T04:51:22.904Z,92.27
2022-08-16T04:56:17.325Z,94.57
2022-08-16T05:01:10.722Z,94.27
2022-08-16T05:06:05.178Z,95.04
2022-08-16T05:11:06.279Z,97.62
2022-08-16T05:16:02.064Z,97.21
2022-08-16T05:21:01.742Z,96.06
2022-08-16T05:26:06.426Z,96.12
2022-08-16T05:31:13.231Z,96.13
2022-08-16T05:36:14.237Z,96.64
2022-08-16T05:41:10.102Z,97.87
2022-08-16T05:46:28.701Z,98.74
2022-08-16T05:51:35.264Z,96.36
2022-08-16T05:56:37.567Z,99.89
2022-08-16T06:01:32.849Z,96.54
2022-08-16T06:06:31.892Z,99.28
2022-08-16T06:11:26.954Z,99.29
2022-08-16T06:16:27.043Z,99.76
2022-08-16T06:21:22.803Z,100.00
2022-08-16T06:26:17.383Z,99.58
2022-08-16T06:31:14.576Z,96.95
2022-08-16T06:36:09.796Z,95.90
2022-08-16T06:41:06.755Z,95.49
2022-08-16T06:46:10.712Z,96.18
2022-08-16T06:51:06.488Z,98.52
2022-08-16T06:56:06.017Z,100.00
2022-08-16T07:00:59.853Z,100.00
2022-08-16T07:05:54.315Z,98.64
2022-08-16T07:10:48.017Z,96.16
2022-08-16T07:15:50.234Z,93.79
2022-08-16T07:20:47.846Z,96.88
2022-08-16T07:25:41.504Z,96.10
2022-08-16T07:30:44.967Z,96.88
2022-08-16T07:35:44.428Z,94.43
2022-08-16T07:40:59.413Z,93.48
2022-08-16T07:45:53.459Z,92.90
2022-08-16T07:50:55.809Z,91.21
2022-08-16T07:55:53.824Z,91.08
2022-08-16T08:00:47.811Z,89.90
2022-08-16T08:05:41.472Z,85.85
2022-08-16T08:10:38.217Z,86.63
2022-08-16T08:15:34.371Z,85.78
2022-08-16T08:20:28.585Z,84.83
2022-08-16T08:25:22.435Z,81.33
2022-08-16T08:30:51.339Z,81.16
2022-08-16T08:35:32.298Z,79.82
2022-08-16T08:40:29.364Z,78.93
2022-08-16T08:45:48.103Z,76.03
2022-08-16T08:50:38.595Z,75.13
2022-08-16T08:55:31.891Z,76.83
2022-08-16T09:00:30.240Z,73.38
2022-08-16T09:05:35.782Z,72.73
2022-08-16T09:10:31.318Z,71.75
2022-08-16T09:15:26.391Z,69.89
2022-08-16T09:20:30.539Z,68.50
2022-08-16T09:25:26.278Z,67.71
2022-08-16T09:30:34.105Z,65.93
2022-08-16T09:35:30.704Z,65.61
2022-08-16T09:40:33.312Z,61.41
2022-08-16T09:45:40.308Z,59.98
2022-08-16T09:50:38.475Z,60.75
2022-08-16T09:55:33.349Z,60.73
2022-08-16T10:00:44.425Z,60.16
2022-08-16T10:05:38.587Z,59.69
2022-08-16T10:10:32.659Z,58.27
2022-08-16T10:15:30.268Z,58.13
2022-08-16T10:20:25.688Z,58.58
2022-08-16T10:27:16.243Z,58.71
2022-08-16T10:30:36.851Z,54.30
2022-08-16T10:35:34.799Z,55.26
2022-08-16T10:40:41.330Z,53.01
2022-08-16T10:45:39.144Z,50.89
2022-08-16T10:50:37.940Z,51.80
2022-08-16T10:55:40.863Z,51.64
2022-08-16T11:00:40.835Z,49.78
2022-08-16T11:05:59.477Z,50.61
2022-08-16T11:11:06.409Z,46.34
2022-08-16T11:16:25.483Z,45.59
2022-08-16T11:21:29.220Z,46.19
2022-08-16T11:26:24.466Z,46.56
2022-08-16T11:31:18.445Z,48.49
2022-08-16T11:36:27.772Z,50.52
2022-08-16T11:41:23.325Z,51.87
2022-08-16T11:46:42.788Z,50.83
2022-08-16T11:51:31.603Z,48.02
2022-08-16T11:56:39.520Z,48.19
2022-08-16T12:01:44.357Z,47.59
2022-08-16T12:06:49.996Z,47.36
2022-08-16T12:11:52.426Z,46.77
2022-08-16T12:16:48.638Z,45.70
2022-08-16T12:21:58.432Z,46.49
2022-08-16T12:26:55.115Z,47.26
2022-08-16T12:32:01.151Z,46.60
2022-08-16T12:37:10.354Z,46.83
2022-08-16T12:42:09.543Z,47.71
2022-08-16T12:47:20.799Z,47.23
2022-08-16T12:52:32.609Z,47.77
2022-08-16T12:57:36.395Z,48.25
2022-08-16T13:02:33.711Z,46.82
2022-08-16T13:07:37.543Z,46.92
2022-08-16T13:12:39.654Z,46.90
2022-08-16T13:17:36.435Z,46.27
2022-08-16T13:28:01.589Z,46.53
2022-08-16T13:32:46.873Z,47.74
2022-08-16T13:37:44.817Z,46.99
2022-08-16T13:42:41.368Z,45.95
2022-08-16T13:47:36.615Z,45.66
2022-08-16T13:52:34.193Z,46.34
2022-08-16T13:57:53.582Z,46.14
2022-08-16T14:02:48.846Z,45.64
2022-08-16T14:07:43.767Z,45.67
2022-08-16T14:12:43.972Z,46.47
2022-08-16T14:18:15.548Z,46.89
2022-08-16T14:22:54.680Z,47.34
2022-08-16T14:27:48.615Z,46.24
2022-08-16T14:32:51.128Z,45.71
2022-08-16T14:37:45.463Z,44.71
2022-08-16T14:42:48.313Z,44.81
2022-08-16T14:47:42.153Z,44.19
2022-08-16T14:52:55.233Z,45.11
2022-08-16T14:57:54.235Z,45.18
2022-08-16T15:02:54.154Z,44.51
2022-08-16T15:07:47.734Z,46.27
2022-08-16T15:12:45.420Z,45.32
2022-08-16T15:17:41.370Z,43.12
2022-08-16T15:22:38.999Z,45.71
2022-08-16T15:27:36.784Z,45.95
2022-08-16T15:32:30.807Z,45.36
2022-08-16T15:37:26.038Z,44.94
2022-08-16T15:42:36.151Z,46.75
2022-08-16T15:47:30.427Z,46.00
2022-08-16T15:52:30.609Z,44.50
2022-08-16T15:57:25.368Z,44.70
2022-08-16T16:02:27.288Z,45.57
2022-08-16T16:07:21.470Z,43.58
2022-08-16T16:12:50.104Z,44.44
2022-08-16T16:17:30.441Z,43.66
2022-08-16T16:22:25.403Z,44.94
2022-08-16T16:27:22.719Z,44.17
2022-08-16T16:32:16.484Z,43.95
2022-08-16T16:37:11.489Z,44.29
2022-08-16T16:42:06.239Z,44.77
2022-08-16T16:47:06.933Z,46.23
2022-08-16T16:52:07.344Z,46.25
2022-08-16T16:57:01.073Z,46.02
2022-08-16T17:01:59.632Z,46.90
2022-08-16T17:07:10.957Z,48.23
2022-08-16T17:12:05.989Z,47.92
2022-08-16T17:16:59.422Z,49.03
2022-08-16T17:21:52.991Z,50.15
2022-08-16T17:26:49.317Z,50.48
2022-08-16T17:31:49.724Z,51.40
2022-08-16T17:36:52.765Z,50.68
2022-08-16T17:41:49.301Z,49.96
2022-08-16T17:46:51.113Z,48.51
2022-08-16T17:51:45.995Z,50.45
2022-08-16T17:56:39.477Z,48.02
2022-08-16T18:01:37.053Z,49.22
2022-08-16T18:06:30.867Z,47.13
2022-08-16T18:11:26.226Z,48.30
2022-08-16T18:16:20.652Z,48.45
2022-08-16T18:21:34.092Z,49.01
2022-08-16T18:26:27.745Z,50.52
2022-08-16T18:31:21.141Z,51.97
2022-08-16T18:36:20.230Z,52.66
2022-08-16T18:41:14.629Z,52.79
2022-08-16T18:46:08.086Z,52.34
2022-08-16T18:51:05.819Z,54.38
2022-08-16T18:56:04.282Z,54.37
2022-08-16T19:00:58.643Z,55.54
2022-08-16T19:05:58.493Z,54.77
2022-08-16T19:10:52.789Z,55.29
2022-08-16T19:15:50.399Z,56.22
2022-08-16T19:20:45.702Z,56.52
2022-08-16T19:25:49.127Z,58.73
2022-08-16T19:30:48.765Z,59.23
2022-08-16T19:35:42.593Z,59.82
2022-08-16T19:40:37.950Z,60.66
2022-08-16T19:45:31.976Z,62.54
2022-08-16T19:50:35.883Z,62.47
2022-08-16T19:55:33.425Z,63.33
2022-08-16T20:00:35.555Z,63.58
2022-08-16T20:05:35.236Z,64.62
2022-08-16T20:10:29.720Z,65.57
2022-08-16T20:15:27.651Z,67.78
2022-08-16T20:20:27.329Z,70.47
2022-08-16T20:25:28.013Z,70.46
2022-08-16T20:30:23.016Z,69.57
2022-08-16T20:35:21.657Z,69.38
2022-08-16T20:40:34.513Z,70.05
2022-08-16T20:45:30.211Z,69.50
2022-08-16T20:50:25.510Z,69.50
2022-08-16T20:55:19.959Z,70.23
2022-08-16T21:00:16.751Z,69.29
2022-08-16T21:05:12.191Z,69.03
2022-08-16T21:10:07.543Z,68.22
2022-08-16T21:15:08.978Z,67.80
2022-08-16T21:20:04.101Z,67.15
2022-08-16T21:25:01.780Z,66.88
2022-08-16T21:29:55.854Z,66.97
2022-08-16T21:34:49.378Z,66.87
2022-08-16T21:39:44.258Z,67.50
2022-08-16T21:44:38.574Z,67.16
2022-08-16T21:49:32.577Z,65.73
2022-08-16T21:54:26.036Z,65.83
2022-08-16T21:59:20.738Z,65.66
2022-08-16T22:04:37.113Z,66.67
2022-08-16T22:09:29.557Z,65.74
2022-08-16T22:14:24.407Z,67.98
2022-08-16T22:19:18.324Z,69.07
2022-08-16T22:24:11.684Z,69.46
2022-08-16T22:29:10.255Z,68.63
2022-08-16T22:34:06.131Z,70.16
2022-08-16T22:39:03.538Z,70.33
2022-08-16T22:43:57.660Z,71.90
2022-08-16T22:48:51.376Z,72.03
2022-08-16T22:53:46.039Z,71.65
2022-08-16T22:58:39.762Z,72.76
2022-08-16T23:03:33.191Z,75.70
2022-08-16T23:08:32.379Z,77.23
2022-08-16T23:13:35.077Z,75.73
2022-08-16T23:18:29.678Z,75.14
2022-08-16T23:23:25.640Z,76.80
2022-08-16T23:28:21.280Z,78.52
2022-08-16T23:33:17.278Z,78.11
2022-08-16T23:38:37.629Z,78.55
2022-08-16T23:43:28.235Z,80.57
2022-08-16T23:48:28.198Z,80.45
2022-08-16T23:53:25.876Z,79.56
2022-08-16T23:58:23.179Z,82.12
